Time;durP1;ratioP1;P1;durP2;ratioP2;P2;SDS_P1;SDS_P2;PMS_P1;PMS_P2;Temp;Humidity;BMP_temperature;BMP_pressure;BME280_temperature;BME280_humidity;BME280_pressure;Samples;Min_cycle;Max_cycle;Signal;HPM_P1;HPM_P2
2022/05/27 00:02:23;;;;;;;5.18;1.95;;;;;;;;;;5071246;27;97299;-75
2022/05/27 00:04:53;;;;;;;4.35;1.83;;;;;;;;;;5073347;27;96587;-74
2022/05/27 00:07:22;;;;;;;4.20;1.70;;;;;;;;;;5072796;27;96270;-72
2022/05/27 00:09:55;;;;;;;4.63;1.77;;;;;;;;;;5072504;27;97218;-71
2022/05/27 00:12:24;;;;;;;6.43;1.65;;;;;;;;;;5065657;27;95229;-72
2022/05/27 00:14:53;;;;;;;4.22;1.52;;;;;;;;;;5053052;27;96933;-71
2022/05/27 00:17:20;;;;;;;2.33;1.50;;;;;;;;;;5070078;27;97251;-72
2022/05/27 00:19:47;;;;;;;3.25;1.35;;;;;;;;;;5063878;27;95293;-74
2022/05/27 00:22:16;;;;;;;4.80;1.50;;;;;;;;;;5074995;27;95245;-70
2022/05/27 00:24:45;;;;;;;2.92;1.30;;;;;;;;;;5070911;27;96792;-76
2022/05/27 00:27:14;;;;;;;2.17;1.33;;;;;;;;;;5075406;27;97099;-74
2022/05/27 00:29:50;;;;;;;3.58;1.40;;;;;;;;;;5075998;27;97317;-77
2022/05/27 00:32:29;;;;;;;1.50;1.25;;;;;;;;;;5070968;27;95463;-73
2022/05/27 00:34:56;;;;;;;2.30;1.42;;;;;;;;;;5055830;27;97267;-74
2022/05/27 00:37:23;;;;;;;3.53;1.50;;;;;;;;;;5054893;27;96180;-73
2022/05/27 00:39:50;;;;;;;4.00;1.92;;;;;;;;;;5055592;27;95741;-72
2022/05/27 00:42:16;;;;;;;2.45;1.40;;;;;;;;;;5055506;27;95100;-76
2022/05/27 00:44:43;;;;;;;4.43;1.45;;;;;;;;;;5058437;27;97286;-75
2022/05/27 00:47:12;;;;;;;3.05;1.45;;;;;;;;;;5055892;27;97451;-72
2022/05/27 00:49:50;;;;;;;3.80;1.50;;;;;;;;;;5054806;27;97249;-72
2022/05/27 00:52:17;;;;;;;2.28;1.38;;;;;;;;;;5055033;27;95219;-73
2022/05/27 00:54:44;;;;;;;5.80;1.50;;;;;;;;;;5061884;27;96756;-74
2022/05/27 00:57:15;;;;;;;2.17;1.40;;;;;;;;;;5074707;27;96107;-72
2022/05/27 00:59:45;;;;;;;3.13;1.77;;;;;;;;;;5074914;27;95400;-72
2022/05/27 01:02:13;;;;;;;4.40;1.58;;;;;;;;;;5067797;27;95032;-73
2022/05/27 01:04:40;;;;;;;2.88;1.38;;;;;;;;;;5065818;27;96760;-72
2022/05/27 01:07:07;;;;;;;2.58;1.42;;;;;;;;;;5076949;27;95354;-72
2022/05/27 01:09:35;;;;;;;3.55;1.90;;;;;;;;;;5062849;27;97544;-72
2022/05/27 01:12:15;;;;;;;2.88;1.90;;;;;;;;;;5055111;27;95095;-71
2022/05/27 01:15:00;;;;;;;2.83;1.70;;;;;;;;;;5054829;27;95883;-72
2022/05/27 01:17:37;;;;;;;2.85;1.60;;;;;;;;;;5054838;27;97261;-71
2022/05/27 01:20:19;;;;;;;3.55;1.92;;;;;;;;;;5069130;27;95479;-72
2022/05/27 01:22:45;;;;;;;2.83;1.77;;;;;;;;;;5072615;27;96856;-71
2022/05/27 01:25:41;;;;;;;3.05;1.80;;;;;;;;;;5075292;27;97375;-72
2022/05/27 01:28:13;;;;;;;3.13;1.60;;;;;;;;;;5044468;27;95419;-72
2022/05/27 01:30:53;;;;;;;8.85;2.15;;;;;;;;;;5078552;27;96982;-71
2022/05/27 01:33:22;;;;;;;4.78;1.92;;;;;;;;;;5059160;27;95343;-72
2022/05/27 01:36:01;;;;;;;3.40;1.88;;;;;;;;;;5054771;27;95566;-71
2022/05/27 01:38:41;;;;;;;4.57;1.70;;;;;;;;;;5070363;27;97346;-71
2022/05/27 01:41:27;;;;;;;5.22;1.63;;;;;;;;;;5054418;27;95255;-72
2022/05/27 01:43:59;;;;;;;2.95;1.80;;;;;;;;;;5054949;27;96693;-71
2022/05/27 01:46:29;;;;;;;3.80;1.63;;;;;;;;;;5070204;27;97358;-71
2022/05/27 01:49:03;;;;;;;3.03;1.70;;;;;;;;;;5074502;27;95247;-71
2022/05/27 01:51:29;;;;;;;4.38;2.03;;;;;;;;;;5074098;27;98792;-71
2022/05/27 01:54:06;;;;;;;4.38;1.77;;;;;;;;;;5078016;27;97734;-72
2022/05/27 01:56:39;;;;;;;3.50;1.70;;;;;;;;;;5073556;27;97318;-72
2022/05/27 01:59:08;;;;;;;4.82;1.85;;;;;;;;;;5062525;27;97702;-72
2022/05/27 02:01:36;;;;;;;5.43;2.25;;;;;;;;;;5056279;27;95406;-72
2022/05/27 02:04:10;;;;;;;3.95;1.70;;;;;;;;;;5056272;27;96761;-71
2022/05/27 02:06:43;;;;;;;2.45;1.63;;;;;;;;;;5052427;27;97399;-70
2022/05/27 02:09:14;;;;;;;4.75;1.90;;;;;;;;;;5073375;27;95171;-74
2022/05/27 02:11:42;;;;;;;3.07;1.80;;;;;;;;;;5074635;27;96829;-72
2022/05/27 02:14:14;;;;;;;7.78;1.85;;;;;;;;;;5077875;27;97274;-72
2022/05/27 02:16:45;;;;;;;3.05;1.80;;;;;;;;;;5074380;27;96820;-72
2022/05/27 02:19:14;;;;;;;5.22;1.73;;;;;;;;;;5070563;27;97302;-72
2022/05/27 02:21:44;;;;;;;2.63;1.50;;;;;;;;;;5054593;27;95358;-71
2022/05/27 02:24:13;;;;;;;1.33;1.20;;;;;;;;;;5065290;27;97302;-73
2022/05/27 02:26:41;;;;;;;4.32;1.80;;;;;;;;;;5066561;27;97403;-75
2022/05/27 02:29:10;;;;;;;2.65;1.73;;;;;;;;;;5074484;27;95216;-72
2022/05/27 02:31:41;;;;;;;3.28;1.63;;;;;;;;;;5073179;27;96831;-73
2022/05/27 02:37:08;;;;;;;4.40;1.55;;;;;;;;;;5077671;27;95217;-71
2022/05/27 02:39:36;;;;;;;4.40;1.63;;;;;;;;;;5073567;27;96302;-75
2022/05/27 02:42:14;;;;;;;2.78;1.73;;;;;;;;;;5069807;27;95328;-75
2022/05/27 02:44:53;;;;;;;3.25;1.70;;;;;;;;;;5074018;27;96701;-73
2022/05/27 02:47:25;;;;;;;3.67;1.73;;;;;;;;;;5072795;27;96438;-76
2022/05/27 02:50:20;;;;;;;4.97;2.08;;;;;;;;;;5074081;27;95120;-71
2022/05/27 02:52:54;;;;;;;2.75;1.50;;;;;;;;;;5070919;27;96716;-73
2022/05/27 02:55:25;;;;;;;2.80;1.83;;;;;;;;;;5071617;27;97474;-76
2022/05/27 02:57:52;;;;;;;3.20;1.52;;;;;;;;;;5072262;27;95397;-77
2022/05/27 03:00:21;;;;;;;3.30;1.55;;;;;;;;;;5065588;27;96804;-72
2022/05/27 03:02:48;;;;;;;2.20;1.58;;;;;;;;;;5053650;27;95184;-72
2022/05/27 03:05:18;;;;;;;2.90;1.73;;;;;;;;;;5052988;27;96678;-74
2022/05/27 03:08:06;;;;;;;2.47;1.60;;;;;;;;;;5053475;27;97345;-73
2022/05/27 03:10:53;;;;;;;3.28;1.67;;;;;;;;;;5073196;27;95388;-72
2022/05/27 03:13:27;;;;;;;4.53;2.03;;;;;;;;;;5055613;27;96879;-76
2022/05/27 03:16:05;;;;;;;3.75;1.67;;;;;;;;;;5073765;27;96751;-75
2022/05/27 03:18:35;;;;;;;5.40;1.58;;;;;;;;;;5073796;27;95288;-76
2022/05/27 03:21:14;;;;;;;2.42;1.60;;;;;;;;;;5072933;27;95832;-77
2022/05/27 03:24:00;;;;;;;5.10;1.83;;;;;;;;;;5075845;27;97411;-72
2022/05/27 03:26:28;;;;;;;3.95;1.77;;;;;;;;;;5071443;27;97000;-75
2022/05/27 03:29:13;;;;;;;2.83;1.63;;;;;;;;;;5053549;27;97384;-77
2022/05/27 03:31:48;;;;;;;3.67;1.83;;;;;;;;;;5073856;27;95201;-71
2022/05/27 03:34:21;;;;;;;3.28;1.67;;;;;;;;;;5073464;27;96889;-72
2022/05/27 03:37:03;;;;;;;2.33;1.67;;;;;;;;;;5072497;27;97354;-75
2022/05/27 03:39:52;;;;;;;3.40;1.50;;;;;;;;;;5073419;27;95994;-73
2022/05/27 03:42:24;;;;;;;5.70;1.80;;;;;;;;;;5070816;27;96298;-73
2022/05/27 03:44:55;;;;;;;3.50;1.65;;;;;;;;;;5073224;27;97315;-73
2022/05/27 03:47:25;;;;;;;2.95;1.73;;;;;;;;;;5073525;27;95380;-76
2022/05/27 03:49:52;;;;;;;3.25;1.85;;;;;;;;;;5073059;27;97642;-71
2022/05/27 03:52:20;;;;;;;3.10;1.75;;;;;;;;;;5073202;27;95151;-73
2022/05/27 03:54:47;;;;;;;3.90;1.80;;;;;;;;;;5071960;27;96920;-73
2022/05/27 03:57:13;;;;;;;5.68;2.20;;;;;;;;;;5072408;27;97460;-75
2022/05/27 03:59:39;;;;;;;4.25;2.10;;;;;;;;;;5072631;27;95879;-76
2022/05/27 04:02:06;;;;;;;4.22;1.80;;;;;;;;;;5075454;27;97094;-71
2022/05/27 04:04:32;;;;;;;4.63;1.95;;;;;;;;;;5075607;27;97722;-72
2022/05/27 04:07:00;;;;;;;5.07;2.25;;;;;;;;;;5076762;27;95278;-72
2022/05/27 04:09:32;;;;;;;4.27;2.13;;;;;;;;;;5078348;27;96159;-72
2022/05/27 04:12:04;;;;;;;4.07;1.98;;;;;;;;;;5076468;27;95197;-72
2022/05/27 04:14:34;;;;;;;6.20;1.80;;;;;;;;;;5076550;27;98581;-70
2022/05/27 04:19:46;;;;;;;4.10;1.98;;;;;;;;;;5076474;27;95241;-72
2022/05/27 04:22:13;;;;;;;3.42;2.13;;;;;;;;;;5076036;27;96038;-72
2022/05/27 04:24:39;;;;;;;6.75;2.45;;;;;;;;;;5075669;27;97266;-71
2022/05/27 04:27:07;;;;;;;4.28;2.13;;;;;;;;;;5058492;27;95304;-71
2022/05/27 04:29:45;;;;;;;7.70;2.72;;;;;;;;;;5059577;27;95738;-76
2022/05/27 19:59:31;;;;;;;4.32;1.42;;;;;;;;;;5059345;27;95443;-75
2022/05/27 19:59:49;;;;;;;2.92;1.35;;;;;;;;;;5032847;27;97344;-73
2022/05/27 20:05:02;;;;;;;5.85;1.63;;;;;;;;;;5028949;27;96690;-76
2022/05/27 20:07:30;;;;;;;1.50;1.17;;;;;;;;;;5032811;27;98627;-74
2022/05/27 20:09:57;;;;;;;6.53;2.42;;;;;;;;;;5029442;27;95315;-74
2022/05/27 20:12:25;;;;;;;3.00;1.35;;;;;;;;;;5025796;27;96722;-74
2022/05/27 20:14:53;;;;;;;4.50;1.25;;;;;;;;;;5035554;27;97511;-75
2022/05/27 20:17:20;;;;;;;5.28;1.40;;;;;;;;;;5029475;27;95551;-77
2022/05/27 20:19:47;;;;;;;4.72;1.52;;;;;;;;;;5027896;28;97411;-77
2022/05/27 20:22:15;;;;;;;2.42;1.25;;;;;;;;;;5028551;27;95174;-78
2022/05/27 20:24:42;;;;;;;2.50;1.35;;;;;;;;;;5043417;27;96803;-77
2022/05/27 20:27:08;;;;;;;3.25;1.30;;;;;;;;;;5039724;27;97284;-77
2022/05/27 20:29:35;;;;;;;2.40;1.25;;;;;;;;;;5028051;27;95439;-75
2022/05/27 20:32:02;;;;;;;3.33;1.30;;;;;;;;;;5027884;27;96806;-76
2022/05/27 20:34:29;;;;;;;2.45;1.20;;;;;;;;;;5028917;27;97812;-75
2022/05/27 20:36:58;;;;;;;7.10;1.60;;;;;;;;;;5048998;27;95343;-73
2022/05/27 20:39:25;;;;;;;5.10;1.40;;;;;;;;;;5051561;27;96647;-71
2022/05/27 20:41:51;;;;;;;3.40;1.23;;;;;;;;;;5032230;27;95294;-74
2022/05/27 20:44:18;;;;;;;4.28;1.75;;;;;;;;;;5041716;27;96630;-78
2022/05/27 20:46:44;;;;;;;3.80;1.50;;;;;;;;;;5047677;27;97338;-76
2022/05/27 20:49:11;;;;;;;3.15;1.40;;;;;;;;;;5033814;27;95209;-78
2022/05/27 20:51:37;;;;;;;2.00;1.30;;;;;;;;;;5027721;28;96339;-74
2022/05/27 20:54:04;;;;;;;4.07;1.42;;;;;;;;;;5030089;27;97228;-76
2022/05/27 20:56:32;;;;;;;2.13;1.20;;;;;;;;;;5026038;27;95324;-77
2022/05/27 20:58:58;;;;;;;2.92;1.33;;;;;;;;;;5030274;27;96853;-73
2022/05/27 21:01:24;;;;;;;5.45;1.85;;;;;;;;;;5034890;27;98523;-76
2022/05/27 21:03:52;;;;;;;3.53;1.00;;;;;;;;;;5039947;27;95913;-73
2022/05/27 21:06:18;;;;;;;3.80;1.38;;;;;;;;;;5045554;27;97374;-72
2022/05/27 21:09:00;;;;;;;2.60;1.33;;;;;;;;;;5014572;28;95322;-74
2022/05/27 21:11:31;;;;;;;4.03;1.47;;;;;;;;;;5021894;28;97147;-73
2022/05/27 21:13:59;;;;;;;5.07;1.90;;;;;;;;;;5021387;28;97339;-73
2022/05/27 21:16:26;;;;;;;5.70;1.40;;;;;;;;;;5028363;28;95409;-73
2022/05/27 21:18:53;;;;;;;4.40;1.40;;;;;;;;;;5032203;27;95650;-72
2022/05/27 21:21:20;;;;;;;6.80;1.83;;;;;;;;;;5032743;28;96572;-74
2022/05/27 21:23:47;;;;;;;3.15;1.48;;;;;;;;;;5023459;28;95191;-73
2022/05/27 21:26:13;;;;;;;4.63;1.50;;;;;;;;;;5015445;28;97411;-74
2022/05/27 21:28:41;;;;;;;5.22;2.63;;;;;;;;;;5021399;28;95355;-73
2022/05/27 21:31:07;;;;;;;6.47;3.25;;;;;;;;;;5033976;28;96617;-74
2022/05/27 21:33:34;;;;;;;6.38;2.70;;;;;;;;;;5034994;28;97270;-73
2022/05/27 21:36:01;;;;;;;2.95;1.35;;;;;;;;;;5034336;27;95474;-74
2022/05/27 21:38:29;;;;;;;1.98;1.17;;;;;;;;;;5026366;27;96415;-75
2022/05/27 21:40:56;;;;;;;4.25;1.40;;;;;;;;;;5035013;28;97275;-71
2022/05/27 21:43:22;;;;;;;1.88;1.13;;;;;;;;;;5034555;27;95308;-72
2022/05/27 21:45:59;;;;;;;6.40;1.35;;;;;;;;;;5037889;27;96996;-74
2022/05/27 21:48:25;;;;;;;2.40;1.20;;;;;;;;;;5031606;27;95238;-75
2022/05/27 21:50:51;;;;;;;2.35;1.20;;;;;;;;;;5015599;28;95940;-72
2022/05/27 21:53:19;;;;;;;3.70;1.80;;;;;;;;;;5015157;28;96883;-75
2022/05/27 21:55:45;;;;;;;3.83;1.40;;;;;;;;;;5037803;27;96475;-72
2022/05/27 21:58:12;;;;;;;2.22;1.50;;;;;;;;;;5049210;27;96787;-74
2022/05/27 22:00:38;;;;;;;3.85;1.20;;;;;;;;;;5034407;28;97395;-73
2022/05/27 22:03:05;;;;;;;2.10;1.20;;;;;;;;;;5033712;27;95278;-72
2022/05/27 22:05:32;;;;;;;5.22;1.52;;;;;;;;;;5033878;27;98783;-73
2022/05/27 22:07:58;;;;;;;3.65;1.20;;;;;;;;;;5037434;28;95309;-74
2022/05/27 22:13:09;;;;;;;4.95;1.48;;;;;;;;;;5046576;27;97403;-72
2022/05/27 22:15:36;;;;;;;2.80;1.60;;;;;;;;;;5040657;27;97040;-74
2022/05/27 22:18:02;;;;;;;3.70;1.42;;;;;;;;;;5054628;27;96748;-73
2022/05/27 22:20:29;;;;;;;5.13;1.50;;;;;;;;;;5052637;27;96525;-72
2022/05/27 22:22:55;;;;;;;3.13;1.55;;;;;;;;;;5028139;28;95278;-70
2022/05/27 22:25:22;;;;;;;7.50;1.45;;;;;;;;;;5050528;27;96479;-73
2022/05/27 22:27:48;;;;;;;6.13;1.20;;;;;;;;;;5057445;27;97385;-72
2022/05/27 22:30:15;;;;;;;4.88;1.40;;;;;;;;;;5054534;27;97207;-73
2022/05/27 22:32:41;;;;;;;2.38;1.27;;;;;;;;;;5053280;27;96560;-73
2022/05/27 22:35:09;;;;;;;3.33;1.52;;;;;;;;;;5049797;27;96758;-73
2022/05/27 22:37:35;;;;;;;2.60;1.33;;;;;;;;;;5047018;27;96837;-72
2022/05/27 22:40:02;;;;;;;5.90;1.88;;;;;;;;;;5033713;28;97349;-73
2022/05/27 22:42:28;;;;;;;2.50;1.42;;;;;;;;;;5051728;27;95948;-74
2022/05/27 22:44:55;;;;;;;6.10;2.03;;;;;;;;;;5040432;27;96765;-72
2022/05/27 22:47:21;;;;;;;4.60;1.60;;;;;;;;;;5041694;27;97555;-75
2022/05/27 22:49:48;;;;;;;8.07;1.80;;;;;;;;;;5057468;27;95173;-74
2022/05/27 22:52:14;;;;;;;5.63;1.80;;;;;;;;;;5052747;27;96375;-75
2022/05/27 22:54:42;;;;;;;3.13;1.40;;;;;;;;;;5053569;27;95332;-77
2022/05/27 22:57:09;;;;;;;3.05;1.73;;;;;;;;;;5054785;27;95673;-73
2022/05/27 22:59:36;;;;;;;1.48;1.17;;;;;;;;;;5051413;27;96182;-74
2022/05/27 23:02:03;;;;;;;5.03;1.80;;;;;;;;;;5044553;27;95652;-75
2022/05/27 23:04:30;;;;;;;5.88;1.83;;;;;;;;;;5054385;27;96934;-72
2022/05/27 23:06:57;;;;;;;4.90;1.70;;;;;;;;;;5053821;27;97174;-73
2022/05/27 23:09:23;;;;;;;3.38;1.50;;;;;;;;;;5036362;27;95292;-73
2022/05/27 23:11:49;;;;;;;3.53;1.50;;;;;;;;;;5042233;27;96422;-75
2022/05/27 23:18:18;;;;;;;5.63;1.42;;;;;;;;;;5033598;28;96718;-75
2022/05/27 23:19:59;;;;;;;2.70;1.42;;;;;;;;;;5033311;28;97466;-75
2022/05/27 23:22:26;;;;;;;2.40;1.63;;;;;;;;;;5042825;27;95301;-74
2022/05/27 23:24:52;;;;;;;3.00;1.48;;;;;;;;;;5034277;27;96762;-76
2022/05/27 23:27:18;;;;;;;2.17;1.30;;;;;;;;;;5053236;27;97428;-75
2022/05/27 23:29:45;;;;;;;5.43;1.48;;;;;;;;;;5051248;27;95957;-75
2022/05/27 23:32:11;;;;;;;5.35;1.70;;;;;;;;;;5052987;27;96802;-72
2022/05/27 23:34:38;;;;;;;4.25;1.88;;;;;;;;;;5046447;27;97274;-71
2022/05/27 23:37:05;;;;;;;4.97;1.50;;;;;;;;;;5036287;27;96787;-74
2022/05/27 23:39:32;;;;;;;5.00;1.67;;;;;;;;;;5052481;27;96062;-72
2022/05/27 23:41:58;;;;;;;5.50;1.55;;;;;;;;;;5053661;27;95403;-73
2022/05/27 23:44:24;;;;;;;4.72;1.90;;;;;;;;;;5050216;27;96803;-72
2022/05/27 23:46:56;;;;;;;5.93;1.85;;;;;;;;;;5026211;28;97284;-71
2022/05/27 23:49:22;;;;;;;3.60;1.52;;;;;;;;;;5032975;27;95362;-71
2022/05/27 23:51:48;;;;;;;5.05;1.77;;;;;;;;;;5015154;27;96704;-71
2022/05/27 23:54:17;;;;;;;3.70;1.70;;;;;;;;;;5052839;27;97244;-72
2022/05/27 23:56:43;;;;;;;3.97;1.88;;;;;;;;;;5054315;27;95308;-72
2022/05/27 23:59:10;;;;;;;2.95;1.40;;;;;;;;;;5052641;27;97004;-71
